sensor_id;sensor_type;location;lat;lon;timestamp;P1;durP1;ratioP1;P2;durP2;ratioP2
70467;SDS011;57934;51.532;7.684;2023-03-24T00:00:40;6.18;;;2.53;;
70467;SDS011;57934;51.532;7.684;2023-03-24T00:03:06;2.58;;;2.20;;
70467;SDS011;57934;51.532;7.684;2023-03-24T00:05:33;3.30;;;2.33;;
70467;SDS011;57934;51.532;7.684;2023-03-24T00:07:59;4.50;;;2.70;;
70467;SDS011;57934;51.532;7.684;2023-03-24T00:10:26;6.93;;;2.67;;
70467;SDS011;57934;51.532;7.684;2023-03-24T00:12:55;4.57;;;2.22;;
70467;SDS011;57934;51.532;7.684;2023-03-24T00:15:23;4.00;;;2.38;;
70467;SDS011;57934;51.532;7.684;2023-03-24T00:17:51;7.13;;;2.80;;
70467;SDS011;57934;51.532;7.684;2023-03-24T00:20:18;7.25;;;2.38;;
70467;SDS011;57934;51.532;7.684;2023-03-24T00:22:47;2.90;;;1.95;;
70467;SDS011;57934;51.532;7.684;2023-03-24T00:25:16;3.88;;;2.20;;
70467;SDS011;57934;51.532;7.684;2023-03-24T00:27:44;5.80;;;2.60;;
70467;SDS011;57934;51.532;7.684;2023-03-24T00:30:13;2.70;;;2.00;;
70467;SDS011;57934;51.532;7.684;2023-03-24T00:32:40;5.95;;;2.50;;
70467;SDS011;57934;51.532;7.684;2023-03-24T00:35:08;3.83;;;2.13;;
70467;SDS011;57934;51.532;7.684;2023-03-24T00:37:35;3.45;;;2.42;;
70467;SDS011;57934;51.532;7.684;2023-03-24T00:40:06;4.43;;;2.63;;
70467;SDS011;57934;51.532;7.684;2023-03-24T00:42:37;5.07;;;2.40;;
70467;SDS011;57934;51.532;7.684;2023-03-24T00:45:05;4.03;;;2.33;;
70467;SDS011;57934;51.532;7.684;2023-03-24T00:47:34;5.20;;;2.13;;
70467;SDS011;57934;51.532;7.684;2023-03-24T00:50:07;2.72;;;2.42;;
70467;SDS011;57934;51.532;7.684;2023-03-24T00:52:37;4.10;;;2.50;;
70467;SDS011;57934;51.532;7.684;2023-03-24T00:55:09;5.35;;;2.42;;
70467;SDS011;57934;51.532;7.684;2023-03-24T00:57:41;4.90;;;2.30;;
70467;SDS011;57934;51.532;7.684;2023-03-24T01:00:18;3.92;;;2.47;;
70467;SDS011;57934;51.532;7.684;2023-03-24T01:02:49;4.70;;;2.40;;
70467;SDS011;57934;51.532;7.684;2023-03-24T01:05:29;3.63;;;2.17;;
70467;SDS011;57934;51.532;7.684;2023-03-24T01:07:56;2.97;;;2.20;;
70467;SDS011;57934;51.532;7.684;2023-03-24T01:10:24;7.03;;;2.60;;
70467;SDS011;57934;51.532;7.684;2023-03-24T01:12:55;2.97;;;2.05;;
70467;SDS011;57934;51.532;7.684;2023-03-24T01:15:24;5.20;;;2.20;;
70467;SDS011;57934;51.532;7.684;2023-03-24T01:17:55;5.47;;;1.83;;
70467;SDS011;57934;51.532;7.684;2023-03-24T01:20:22;5.00;;;2.17;;
70467;SDS011;57934;51.532;7.684;2023-03-24T01:22:49;3.08;;;1.92;;
70467;SDS011;57934;51.532;7.684;2023-03-24T01:25:17;3.75;;;2.15;;
70467;SDS011;57934;51.532;7.684;2023-03-24T01:27:45;2.30;;;2.10;;
70467;SDS011;57934;51.532;7.684;2023-03-24T01:30:13;5.03;;;2.55;;
70467;SDS011;57934;51.532;7.684;2023-03-24T01:32:41;2.65;;;2.15;;
70467;SDS011;57934;51.532;7.684;2023-03-24T01:35:10;3.53;;;2.50;;
70467;SDS011;57934;51.532;7.684;2023-03-24T01:37:37;5.53;;;2.60;;
70467;SDS011;57934;51.532;7.684;2023-03-24T01:40:04;3.00;;;2.70;;
70467;SDS011;57934;51.532;7.684;2023-03-24T01:42:35;3.55;;;2.75;;
70467;SDS011;57934;51.532;7.684;2023-03-24T01:50:58;5.72;;;2.85;;
70467;SDS011;57934;51.532;7.684;2023-03-24T01:53:29;6.47;;;2.60;;
70467;SDS011;57934;51.532;7.684;2023-03-24T01:55:56;3.13;;;2.55;;
70467;SDS011;57934;51.532;7.684;2023-03-24T01:58:28;5.78;;;3.28;;
70467;SDS011;57934;51.532;7.684;2023-03-24T02:01:09;3.22;;;2.58;;
70467;SDS011;57934;51.532;7.684;2023-03-24T02:03:52;5.63;;;2.63;;
70467;SDS011;57934;51.532;7.684;2023-03-24T02:06:18;3.65;;;2.72;;
70467;SDS011;57934;51.532;7.684;2023-03-24T02:08:57;3.75;;;3.30;;
70467;SDS011;57934;51.532;7.684;2023-03-24T02:11:31;4.15;;;2.90;;
70467;SDS011;57934;51.532;7.684;2023-03-24T02:14:02;3.15;;;2.55;;
70467;SDS011;57934;51.532;7.684;2023-03-24T02:51:07;5.60;;;3.60;;
70467;SDS011;57934;51.532;7.684;2023-03-24T02:53:54;5.57;;;3.53;;
70467;SDS011;57934;51.532;7.684;2023-03-24T02:57:16;5.18;;;3.70;;
70467;SDS011;57934;51.532;7.684;2023-03-24T03:02:19;6.43;;;3.95;;
70467;SDS011;57934;51.532;7.684;2023-03-24T03:04:57;8.32;;;4.28;;
70467;SDS011;57934;51.532;7.684;2023-03-24T03:07:29;4.10;;;3.58;;
70467;SDS011;57934;51.532;7.684;2023-03-24T03:09:59;7.13;;;4.72;;
70467;SDS011;57934;51.532;7.684;2023-03-24T03:12:32;7.40;;;4.35;;
70467;SDS011;57934;51.532;7.684;2023-03-24T03:15:03;5.65;;;3.85;;
70467;SDS011;57934;51.532;7.684;2023-03-24T03:17:37;6.25;;;4.57;;
70467;SDS011;57934;51.532;7.684;2023-03-24T03:20:17;6.50;;;4.15;;
70467;SDS011;57934;51.532;7.684;2023-03-24T03:22:47;6.60;;;4.05;;
70467;SDS011;57934;51.532;7.684;2023-03-24T03:25:17;4.57;;;4.10;;
70467;SDS011;57934;51.532;7.684;2023-03-24T03:27:47;8.00;;;3.75;;
70467;SDS011;57934;51.532;7.684;2023-03-24T03:30:15;7.30;;;3.70;;
70467;SDS011;57934;51.532;7.684;2023-03-24T03:32:55;6.30;;;3.83;;
70467;SDS011;57934;51.532;7.684;2023-03-24T03:35:29;4.05;;;3.35;;
70467;SDS011;57934;51.532;7.684;2023-03-24T03:40:31;4.05;;;3.65;;
70467;SDS011;57934;51.532;7.684;2023-03-24T03:43:09;4.75;;;2.63;;
70467;SDS011;57934;51.532;7.684;2023-03-24T03:45:36;4.82;;;3.00;;
70467;SDS011;57934;51.532;7.684;2023-03-24T03:48:02;3.20;;;2.85;;
70467;SDS011;57934;51.532;7.684;2023-03-24T03:50:29;4.13;;;3.20;;
70467;SDS011;57934;51.532;7.684;2023-03-24T03:53:01;3.45;;;3.08;;
70467;SDS011;57934;51.532;7.684;2023-03-24T03:55:27;3.63;;;3.00;;
70467;SDS011;57934;51.532;7.684;2023-03-24T03:57:53;3.05;;;2.75;;
70467;SDS011;57934;51.532;7.684;2023-03-24T04:00:55;4.65;;;2.95;;
70467;SDS011;57934;51.532;7.684;2023-03-24T04:10:46;4.68;;;3.33;;
70467;SDS011;57934;51.532;7.684;2023-03-24T04:16:20;3.35;;;3.05;;
70467;SDS011;57934;51.532;7.684;2023-03-24T04:27:04;4.07;;;3.65;;
70467;SDS011;57934;51.532;7.684;2023-03-24T04:32:57;5.72;;;3.92;;
70467;SDS011;57934;51.532;7.684;2023-03-24T04:35:29;4.60;;;4.20;;
70467;SDS011;57934;51.532;7.684;2023-03-24T04:38:22;6.80;;;4.78;;
70467;SDS011;57934;51.532;7.684;2023-03-24T04:41:11;5.03;;;4.53;;
70467;SDS011;57934;51.532;7.684;2023-03-24T04:43:43;5.72;;;4.50;;
70467;SDS011;57934;51.532;7.684;2023-03-24T04:46:12;5.53;;;4.80;;
70467;SDS011;57934;51.532;7.684;2023-03-24T04:49:07;6.75;;;5.10;;
70467;SDS011;57934;51.532;7.684;2023-03-24T04:51:35;6.85;;;4.90;;
70467;SDS011;57934;51.532;7.684;2023-03-24T04:54:22;8.65;;;5.50;;
70467;SDS011;57934;51.532;7.684;2023-03-24T04:56:52;5.55;;;5.05;;
70467;SDS011;57934;51.532;7.684;2023-03-24T04:59:24;8.65;;;6.55;;
70467;SDS011;57934;51.532;7.684;2023-03-24T05:01:50;12.38;;;6.32;;
70467;SDS011;57934;51.532;7.684;2023-03-24T05:04:26;9.23;;;6.38;;
70467;SDS011;57934;51.532;7.684;2023-03-24T05:06:57;10.18;;;6.72;;
70467;SDS011;57934;51.532;7.684;2023-03-24T05:09:25;7.47;;;5.88;;
70467;SDS011;57934;51.532;7.684;2023-03-24T05:11:52;10.20;;;6.10;;
70467;SDS011;57934;51.532;7.684;2023-03-24T05:14:19;3.60;;;3.30;;
70467;SDS011;57934;51.532;7.684;2023-03-24T05:16:45;4.95;;;3.58;;
70467;SDS011;57934;51.532;7.684;2023-03-24T05:19:13;3.78;;;3.20;;
70467;SDS011;57934;51.532;7.684;2023-03-24T05:21:40;4.13;;;3.30;;
70467;SDS011;57934;51.532;7.684;2023-03-24T05:24:06;4.88;;;3.50;;
70467;SDS011;57934;51.532;7.684;2023-03-24T05:26:34;4.53;;;3.70;;
70467;SDS011;57934;51.532;7.684;2023-03-24T05:29:09;4.40;;;3.78;;
70467;SDS011;57934;51.532;7.684;2023-03-24T05:31:35;7.10;;;5.30;;
70467;SDS011;57934;51.532;7.684;2023-03-24T05:34:06;5.57;;;4.90;;
70467;SDS011;57934;51.532;7.684;2023-03-24T05:36:40;5.30;;;4.65;;
70467;SDS011;57934;51.532;7.684;2023-03-24T05:39:06;7.18;;;4.03;;
70467;SDS011;57934;51.532;7.684;2023-03-24T05:41:43;4.63;;;3.83;;
70467;SDS011;57934;51.532;7.684;2023-03-24T05:44:09;5.18;;;3.90;;
70467;SDS011;57934;51.532;7.684;2023-03-24T05:46:35;3.95;;;3.20;;
70467;SDS011;57934;51.532;7.684;2023-03-24T05:49:03;5.70;;;3.67;;
70467;SDS011;57934;51.532;7.684;2023-03-24T05:51:33;3.92;;;3.55;;
70467;SDS011;57934;51.532;7.684;2023-03-24T05:54:05;7.03;;;3.83;;
70467;SDS011;57934;51.532;7.684;2023-03-24T05:56:54;5.13;;;3.85;;
70467;SDS011;57934;51.532;7.684;2023-03-24T05:59:37;7.35;;;4.53;;
70467;SDS011;57934;51.532;7.684;2023-03-24T06:02:17;6.22;;;4.40;;
70467;SDS011;57934;51.532;7.684;2023-03-24T06:04:49;7.10;;;4.35;;
70467;SDS011;57934;51.532;7.684;2023-03-24T06:07:20;5.57;;;4.15;;
70467;SDS011;57934;51.532;7.684;2023-03-24T06:09:47;7.65;;;4.10;;
70467;SDS011;57934;51.532;7.684;2023-03-24T06:12:18;4.80;;;4.30;;
70467;SDS011;57934;51.532;7.684;2023-03-24T06:15:04;3.92;;;3.30;;
70467;SDS011;57934;51.532;7.684;2023-03-24T06:17:31;3.55;;;3.10;;
70467;SDS011;57934;51.532;7.684;2023-03-24T06:20:03;6.13;;;2.97;;
70467;SDS011;57934;51.532;7.684;2023-03-24T06:22:57;3.42;;;2.33;;
70467;SDS011;57934;51.532;7.684;2023-03-24T06:25:28;4.13;;;2.10;;
70467;SDS011;57934;51.532;7.684;2023-03-24T06:28:11;4.05;;;2.28;;
70467;SDS011;57934;51.532;7.684;2023-03-24T06:30:42;5.07;;;2.30;;
70467;SDS011;57934;51.532;7.684;2023-03-24T06:33:09;6.82;;;2.25;;
70467;SDS011;57934;51.532;7.684;2023-03-24T06:35:36;4.50;;;2.00;;
70467;SDS011;57934;51.532;7.684;2023-03-24T06:38:06;3.63;;;2.20;;
70467;SDS011;57934;51.532;7.684;2023-03-24T06:40:33;5.35;;;2.20;;
70467;SDS011;57934;51.532;7.684;2023-03-24T06:42:59;4.85;;;2.10;;
70467;SDS011;57934;51.532;7.684;2023-03-24T06:45:26;5.65;;;2.38;;
70467;SDS011;57934;51.532;7.684;2023-03-24T06:47:57;6.07;;;2.67;;
70467;SDS011;57934;51.532;7.684;2023-03-24T06:50:23;5.47;;;2.60;;
70467;SDS011;57934;51.532;7.684;2023-03-24T06:52:52;7.53;;;2.55;;
70467;SDS011;57934;51.532;7.684;2023-03-24T06:55:20;4.15;;;2.88;;
70467;SDS011;57934;51.532;7.684;2023-03-24T06:57:48;8.93;;;3.10;;
70467;SDS011;57934;51.532;7.684;2023-03-24T07:00:30;6.75;;;2.53;;
70467;SDS011;57934;51.532;7.684;2023-03-24T07:03:19;10.65;;;3.10;;
70467;SDS011;57934;51.532;7.684;2023-03-24T07:06:08;5.85;;;2.47;;
70467;SDS011;57934;51.532;7.684;2023-03-24T07:08:34;5.07;;;2.30;;
70467;SDS011;57934;51.532;7.684;2023-03-24T07:11:01;8.55;;;2.80;;
70467;SDS011;57934;51.532;7.684;2023-03-24T07:13:30;11.18;;;3.58;;
70467;SDS011;57934;51.532;7.684;2023-03-24T07:16:02;7.45;;;2.95;;
70467;SDS011;57934;51.532;7.684;2023-03-24T07:18:29;4.75;;;2.65;;
70467;SDS011;57934;51.532;7.684;2023-03-24T07:21:02;8.13;;;3.00;;
70467;SDS011;57934;51.532;7.684;2023-03-24T07:23:29;7.40;;;2.83;;
70467;SDS011;57934;51.532;7.684;2023-03-24T07:26:18;8.13;;;2.53;;
70467;SDS011;57934;51.532;7.684;2023-03-24T07:28:56;8.45;;;3.00;;
70467;SDS011;57934;51.532;7.684;2023-03-24T07:31:33;6.68;;;3.00;;
70467;SDS011;57934;51.532;7.684;2023-03-24T07:34:04;10.07;;;3.35;;
70467;SDS011;57934;51.532;7.684;2023-03-24T07:36:33;6.88;;;2.85;;
70467;SDS011;57934;51.532;7.684;2023-03-24T07:38:59;6.68;;;3.05;;
70467;SDS011;57934;51.532;7.684;2023-03-24T07:41:31;5.50;;;3.13;;
70467;SDS011;57934;51.532;7.684;2023-03-24T07:44:01;5.68;;;3.28;;
70467;SDS011;57934;51.532;7.684;2023-03-24T07:46:33;5.72;;;3.20;;
70467;SDS011;57934;51.532;7.684;2023-03-24T07:48:59;4.72;;;2.80;;
70467;SDS011;57934;51.532;7.684;2023-03-24T07:51:27;6.28;;;3.78;;
70467;SDS011;57934;51.532;7.684;2023-03-24T07:53:57;8.90;;;3.45;;
70467;SDS011;57934;51.532;7.684;2023-03-24T07:56:40;10.13;;;3.20;;
70467;SDS011;57934;51.532;7.684;2023-03-24T07:59:08;11.45;;;2.00;;
70467;SDS011;57934;51.532;7.684;2023-03-24T08:01:57;8.10;;;1.67;;
70467;SDS011;57934;51.532;7.684;2023-03-24T08:04:50;8.05;;;1.90;;
70467;SDS011;57934;51.532;7.684;2023-03-24T08:07:30;10.20;;;1.88;;
70467;SDS011;57934;51.532;7.684;2023-03-24T08:09:56;7.82;;;2.85;;
70467;SDS011;57934;51.532;7.684;2023-03-24T08:12:22;10.32;;;1.55;;
70467;SDS011;57934;51.532;7.684;2023-03-24T08:14:49;6.13;;;1.38;;
70467;SDS011;57934;51.532;7.684;2023-03-24T08:17:16;7.68;;;1.63;;
70467;SDS011;57934;51.532;7.684;2023-03-24T08:19:42;11.35;;;2.08;;
70467;SDS011;57934;51.532;7.684;2023-03-24T08:22:08;13.55;;;2.15;;
70467;SDS011;57934;51.532;7.684;2023-03-24T08:24:34;9.90;;;2.08;;
70467;SDS011;57934;51.532;7.684;2023-03-24T08:27:01;6.97;;;1.58;;
70467;SDS011;57934;51.532;7.684;2023-03-24T08:29:31;8.25;;;1.60;;
70467;SDS011;57934;51.532;7.684;2023-03-24T08:31:59;9.82;;;2.20;;
70467;SDS011;57934;51.532;7.684;2023-03-24T08:34:26;6.68;;;1.60;;
70467;SDS011;57934;51.532;7.684;2023-03-24T08:36:52;8.20;;;1.83;;
70467;SDS011;57934;51.532;7.684;2023-03-24T08:39:18;9.82;;;1.63;;
70467;SDS011;57934;51.532;7.684;2023-03-24T08:41:45;11.13;;;2.22;;
70467;SDS011;57934;51.532;7.684;2023-03-24T08:44:11;6.28;;;1.65;;
70467;SDS011;57934;51.532;7.684;2023-03-24T08:46:38;5.80;;;1.85;;
70467;SDS011;57934;51.532;7.684;2023-03-24T08:49:04;8.43;;;1.92;;
70467;SDS011;57934;51.532;7.684;2023-03-24T08:51:31;8.32;;;1.65;;
70467;SDS011;57934;51.532;7.684;2023-03-24T08:53:57;9.15;;;2.05;;
70467;SDS011;57934;51.532;7.684;2023-03-24T08:56:24;9.55;;;1.75;;
70467;SDS011;57934;51.532;7.684;2023-03-24T08:58:50;5.35;;;1.48;;
70467;SDS011;57934;51.532;7.684;2023-03-24T09:01:19;7.28;;;1.65;;
70467;SDS011;57934;51.532;7.684;2023-03-24T09:03:45;7.38;;;1.70;;
70467;SDS011;57934;51.532;7.684;2023-03-24T09:06:12;8.02;;;1.92;;
70467;SDS011;57934;51.532;7.684;2023-03-24T09:08:39;5.85;;;1.52;;
70467;SDS011;57934;51.532;7.684;2023-03-24T09:11:06;6.53;;;1.80;;
70467;SDS011;57934;51.532;7.684;2023-03-24T09:13:40;5.03;;;1.77;;
70467;SDS011;57934;51.532;7.684;2023-03-24T09:16:06;10.32;;;2.28;;
70467;SDS011;57934;51.532;7.684;2023-03-24T09:18:32;6.43;;;1.70;;
70467;SDS011;57934;51.532;7.684;2023-03-24T09:20:58;8.50;;;1.77;;
70467;SDS011;57934;51.532;7.684;2023-03-24T09:23:24;6.13;;;1.85;;
70467;SDS011;57934;51.532;7.684;2023-03-24T09:25:51;5.25;;;1.65;;
70467;SDS011;57934;51.532;7.684;2023-03-24T09:28:18;4.35;;;1.55;;
70467;SDS011;57934;51.532;7.684;2023-03-24T09:30:45;5.70;;;1.55;;
70467;SDS011;57934;51.532;7.684;2023-03-24T09:33:12;6.10;;;1.85;;
70467;SDS011;57934;51.532;7.684;2023-03-24T09:35:38;5.88;;;1.40;;
70467;SDS011;57934;51.532;7.684;2023-03-24T09:38:05;5.57;;;1.75;;
70467;SDS011;57934;51.532;7.684;2023-03-24T09:40:34;7.90;;;1.90;;
70467;SDS011;57934;51.532;7.684;2023-03-24T09:43:03;11.77;;;2.22;;
70467;SDS011;57934;51.532;7.684;2023-03-24T09:45:29;4.30;;;1.67;;
70467;SDS011;57934;51.532;7.684;2023-03-24T09:48:02;4.68;;;1.60;;
70467;SDS011;57934;51.532;7.684;2023-03-24T09:50:34;4.50;;;1.50;;
70467;SDS011;57934;51.532;7.684;2023-03-24T09:53:06;10.20;;;3.22;;
70467;SDS011;57934;51.532;7.684;2023-03-24T09:55:40;11.27;;;1.80;;
70467;SDS011;57934;51.532;7.684;2023-03-24T09:58:09;7.20;;;1.98;;
70467;SDS011;57934;51.532;7.684;2023-03-24T10:00:38;8.48;;;2.30;;
70467;SDS011;57934;51.532;7.684;2023-03-24T10:05:44;9.05;;;2.22;;
70467;SDS011;57934;51.532;7.684;2023-03-24T10:08:27;10.18;;;2.53;;
70467;SDS011;57934;51.532;7.684;2023-03-24T10:24:53;8.43;;;2.42;;
70467;SDS011;57934;51.532;7.684;2023-03-24T10:27:29;9.07;;;2.55;;
70467;SDS011;57934;51.532;7.684;2023-03-24T10:30:03;9.95;;;2.90;;
70467;SDS011;57934;51.532;7.684;2023-03-24T10:32:39;10.50;;;2.35;;
70467;SDS011;57934;51.532;7.684;2023-03-24T10:35:07;10.65;;;2.50;;
70467;SDS011;57934;51.532;7.684;2023-03-24T10:40:13;11.68;;;2.53;;
70467;SDS011;57934;51.532;7.684;2023-03-24T10:42:41;9.10;;;2.63;;
70467;SDS011;57934;51.532;7.684;2023-03-24T10:45:15;9.68;;;2.17;;
70467;SDS011;57934;51.532;7.684;2023-03-24T10:47:52;7.45;;;1.92;;
70467;SDS011;57934;51.532;7.684;2023-03-24T10:50:23;5.97;;;2.28;;
70467;SDS011;57934;51.532;7.684;2023-03-24T10:52:51;8.73;;;1.77;;
70467;SDS011;57934;51.532;7.684;2023-03-24T10:55:20;4.88;;;1.50;;
70467;SDS011;57934;51.532;7.684;2023-03-24T10:58:00;5.00;;;1.60;;
70467;SDS011;57934;51.532;7.684;2023-03-24T11:00:28;7.32;;;1.50;;
70467;SDS011;57934;51.532;7.684;2023-03-24T11:03:00;6.68;;;1.60;;
70467;SDS011;57934;51.532;7.684;2023-03-24T11:05:31;10.00;;;2.30;;
70467;SDS011;57934;51.532;7.684;2023-03-24T11:10:51;9.82;;;2.30;;
70467;SDS011;57934;51.532;7.684;2023-03-24T11:13:19;7.25;;;2.05;;
70467;SDS011;57934;51.532;7.684;2023-03-24T11:15:52;5.78;;;1.52;;
70467;SDS011;57934;51.532;7.684;2023-03-24T11:18:29;6.78;;;2.35;;
70467;SDS011;57934;51.532;7.684;2023-03-24T11:20:56;6.15;;;1.55;;
70467;SDS011;57934;51.532;7.684;2023-03-24T11:23:32;5.63;;;1.50;;
70467;SDS011;57934;51.532;7.684;2023-03-24T11:26:07;6.03;;;1.88;;
70467;SDS011;57934;51.532;7.684;2023-03-24T11:28:40;4.05;;;1.67;;
70467;SDS011;57934;51.532;7.684;2023-03-24T11:31:10;6.57;;;1.75;;
70467;SDS011;57934;51.532;7.684;2023-03-24T11:33:44;5.80;;;1.60;;
70467;SDS011;57934;51.532;7.684;2023-03-24T11:52:38;6.85;;;2.15;;
70467;SDS011;57934;51.532;7.684;2023-03-24T11:55:17;8.57;;;1.80;;
70467;SDS011;57934;51.532;7.684;2023-03-24T12:00:19;10.20;;;2.10;;
70467;SDS011;57934;51.532;7.684;2023-03-24T12:05:46;8.23;;;1.63;;
70467;SDS011;57934;51.532;7.684;2023-03-24T12:11:16;8.07;;;1.95;;
70467;SDS011;57934;51.532;7.684;2023-03-24T12:13:44;6.38;;;1.38;;
70467;SDS011;57934;51.532;7.684;2023-03-24T12:16:35;7.72;;;1.70;;
70467;SDS011;57934;51.532;7.684;2023-03-24T12:27:29;8.73;;;1.80;;
70467;SDS011;57934;51.532;7.684;2023-03-24T12:30:00;6.07;;;1.40;;
70467;SDS011;57934;51.532;7.684;2023-03-24T12:35:41;7.90;;;1.63;;
70467;SDS011;57934;51.532;7.684;2023-03-24T12:41:14;11.18;;;1.95;;
70467;SDS011;57934;51.532;7.684;2023-03-24T12:44:05;5.88;;;1.65;;
70467;SDS011;57934;51.532;7.684;2023-03-24T12:52:11;5.22;;;1.25;;
70467;SDS011;57934;51.532;7.684;2023-03-24T12:55:03;8.27;;;1.60;;
70467;SDS011;57934;51.532;7.684;2023-03-24T12:57:37;5.65;;;1.58;;
70467;SDS011;57934;51.532;7.684;2023-03-24T13:00:11;3.65;;;1.60;;
70467;SDS011;57934;51.532;7.684;2023-03-24T13:02:50;6.28;;;1.40;;
70467;SDS011;57934;51.532;7.684;2023-03-24T13:05:32;13.98;;;1.75;;
70467;SDS011;57934;51.532;7.684;2023-03-24T13:08:03;7.50;;;1.73;;
70467;SDS011;57934;51.532;7.684;2023-03-24T13:10:38;7.95;;;1.67;;
70467;SDS011;57934;51.532;7.684;2023-03-24T13:13:12;6.50;;;1.73;;
70467;SDS011;57934;51.532;7.684;2023-03-24T13:15:42;4.82;;;1.70;;
70467;SDS011;57934;51.532;7.684;2023-03-24T13:21:01;4.90;;;1.75;;
70467;SDS011;57934;51.532;7.684;2023-03-24T13:29:03;5.85;;;1.65;;
70467;SDS011;57934;51.532;7.684;2023-03-24T13:31:25;7.10;;;2.00;;
70467;SDS011;57934;51.532;7.684;2023-03-24T13:34:02;9.77;;;2.03;;
70467;SDS011;57934;51.532;7.684;2023-03-24T13:36:38;10.85;;;2.03;;
70467;SDS011;57934;51.532;7.684;2023-03-24T13:39:13;6.57;;;1.30;;
70467;SDS011;57934;51.532;7.684;2023-03-24T13:41:45;11.98;;;2.20;;
70467;SDS011;57934;51.532;7.684;2023-03-24T13:44:25;24.00;;;4.35;;
70467;SDS011;57934;51.532;7.684;2023-03-24T13:49:30;12.27;;;1.67;;
70467;SDS011;57934;51.532;7.684;2023-03-24T13:51:57;5.85;;;1.52;;
70467;SDS011;57934;51.532;7.684;2023-03-24T13:54:28;6.55;;;1.70;;
70467;SDS011;57934;51.532;7.684;2023-03-24T13:56:58;8.18;;;2.22;;
70467;SDS011;57934;51.532;7.684;2023-03-24T14:02:19;6.57;;;1.55;;
70467;SDS011;57934;51.532;7.684;2023-03-24T14:15:18;10.18;;;1.98;;
70467;SDS011;57934;51.532;7.684;2023-03-24T14:17:45;5.55;;;1.35;;
70467;SDS011;57934;51.532;7.684;2023-03-24T14:20:25;9.65;;;1.65;;
70467;SDS011;57934;51.532;7.684;2023-03-24T14:22:53;8.98;;;1.60;;
70467;SDS011;57934;51.532;7.684;2023-03-24T14:25:24;5.10;;;1.30;;
70467;SDS011;57934;51.532;7.684;2023-03-24T14:27:54;8.70;;;1.10;;
70467;SDS011;57934;51.532;7.684;2023-03-24T14:30:35;8.75;;;1.77;;
70467;SDS011;57934;51.532;7.684;2023-03-24T14:33:19;6.22;;;1.33;;
70467;SDS011;57934;51.532;7.684;2023-03-24T14:35:49;6.95;;;1.60;;
70467;SDS011;57934;51.532;7.684;2023-03-24T14:38:26;10.50;;;2.03;;
70467;SDS011;57934;51.532;7.684;2023-03-24T14:40:56;3.88;;;1.20;;
70467;SDS011;57934;51.532;7.684;2023-03-24T14:43:28;6.60;;;1.60;;
70467;SDS011;57934;51.532;7.684;2023-03-24T14:49:03;6.95;;;1.67;;
70467;SDS011;57934;51.532;7.684;2023-03-24T14:57:17;4.80;;;1.52;;
70467;SDS011;57934;51.532;7.684;2023-03-24T15:08:03;4.80;;;1.40;;
70467;SDS011;57934;51.532;7.684;2023-03-24T15:10:42;4.38;;;0.88;;
70467;SDS011;57934;51.532;7.684;2023-03-24T15:15:54;5.82;;;1.00;;
70467;SDS011;57934;51.532;7.684;2023-03-24T15:18:26;4.45;;;1.23;;
70467;SDS011;57934;51.532;7.684;2023-03-24T15:20:53;10.05;;;3.17;;
70467;SDS011;57934;51.532;7.684;2023-03-24T15:23:23;3.67;;;1.10;;
70467;SDS011;57934;51.532;7.684;2023-03-24T15:25:58;2.67;;;0.68;;
70467;SDS011;57934;51.532;7.684;2023-03-24T15:28:27;4.97;;;1.45;;
70467;SDS011;57934;51.532;7.684;2023-03-24T15:30:57;3.90;;;0.70;;
70467;SDS011;57934;51.532;7.684;2023-03-24T15:33:27;4.78;;;1.40;;
70467;SDS011;57934;51.532;7.684;2023-03-24T15:36:00;5.88;;;1.25;;
70467;SDS011;57934;51.532;7.684;2023-03-24T15:38:27;6.97;;;1.20;;
70467;SDS011;57934;51.532;7.684;2023-03-24T15:41:02;7.60;;;1.80;;
70467;SDS011;57934;51.532;7.684;2023-03-24T15:43:32;7.38;;;1.85;;
70467;SDS011;57934;51.532;7.684;2023-03-24T15:46:05;6.43;;;1.58;;
70467;SDS011;57934;51.532;7.684;2023-03-24T15:48:53;7.35;;;1.90;;
70467;SDS011;57934;51.532;7.684;2023-03-24T15:54:22;12.13;;;1.90;;
70467;SDS011;57934;51.532;7.684;2023-03-24T16:01:08;4.03;;;1.58;;
70467;SDS011;57934;51.532;7.684;2023-03-24T16:03:55;4.28;;;1.20;;
70467;SDS011;57934;51.532;7.684;2023-03-24T16:06:28;3.15;;;0.82;;
70467;SDS011;57934;51.532;7.684;2023-03-24T16:09:33;7.85;;;1.60;;
70467;SDS011;57934;51.532;7.684;2023-03-24T16:12:10;2.88;;;0.93;;
70467;SDS011;57934;51.532;7.684;2023-03-24T16:14:49;6.30;;;1.27;;
70467;SDS011;57934;51.532;7.684;2023-03-24T16:21:21;5.53;;;1.23;;
70467;SDS011;57934;51.532;7.684;2023-03-24T16:24:17;2.85;;;1.20;;
70467;SDS011;57934;51.532;7.684;2023-03-24T16:26:53;5.47;;;1.13;;
70467;SDS011;57934;51.532;7.684;2023-03-24T16:29:55;5.35;;;1.35;;
70467;SDS011;57934;51.532;7.684;2023-03-24T16:32:27;5.60;;;1.25;;
70467;SDS011;57934;51.532;7.684;2023-03-24T16:35:11;4.20;;;1.02;;
70467;SDS011;57934;51.532;7.684;2023-03-24T16:37:57;4.15;;;1.30;;
70467;SDS011;57934;51.532;7.684;2023-03-24T16:43:33;4.22;;;1.65;;
70467;SDS011;57934;51.532;7.684;2023-03-24T17:00:57;2.08;;;0.80;;
70467;SDS011;57934;51.532;7.684;2023-03-24T17:03:26;6.13;;;0.85;;
70467;SDS011;57934;51.532;7.684;2023-03-24T17:05:56;2.95;;;0.82;;
70467;SDS011;57934;51.532;7.684;2023-03-24T17:08:22;3.80;;;0.75;;
70467;SDS011;57934;51.532;7.684;2023-03-24T17:10:50;1.60;;;0.88;;
70467;SDS011;57934;51.532;7.684;2023-03-24T17:13:20;3.92;;;1.08;;
70467;SDS011;57934;51.532;7.684;2023-03-24T17:15:49;3.60;;;1.55;;
70467;SDS011;57934;51.532;7.684;2023-03-24T17:18:17;2.97;;;1.40;;
70467;SDS011;57934;51.532;7.684;2023-03-24T17:20:45;4.00;;;0.85;;
70467;SDS011;57934;51.532;7.684;2023-03-24T17:23:13;6.10;;;1.10;;
70467;SDS011;57934;51.532;7.684;2023-03-24T17:25:43;2.70;;;1.35;;
70467;SDS011;57934;51.532;7.684;2023-03-24T17:28:12;2.70;;;1.27;;
70467;SDS011;57934;51.532;7.684;2023-03-24T17:30:41;1.55;;;0.82;;
70467;SDS011;57934;51.532;7.684;2023-03-24T17:33:10;4.72;;;1.02;;
70467;SDS011;57934;51.532;7.684;2023-03-24T17:35:39;6.93;;;0.90;;
70467;SDS011;57934;51.532;7.684;2023-03-24T17:38:09;2.80;;;0.85;;
70467;SDS011;57934;51.532;7.684;2023-03-24T17:40:38;3.65;;;0.80;;
70467;SDS011;57934;51.532;7.684;2023-03-24T17:43:06;3.63;;;0.88;;
70467;SDS011;57934;51.532;7.684;2023-03-24T17:45:34;2.83;;;0.90;;
70467;SDS011;57934;51.532;7.684;2023-03-24T17:48:00;4.75;;;1.05;;
70467;SDS011;57934;51.532;7.684;2023-03-24T17:50:27;4.45;;;0.98;;
70467;SDS011;57934;51.532;7.684;2023-03-24T17:52:56;1.45;;;0.90;;
70467;SDS011;57934;51.532;7.684;2023-03-24T17:55:22;3.70;;;0.88;;
70467;SDS011;57934;51.532;7.684;2023-03-24T17:57:49;2.60;;;0.95;;
70467;SDS011;57934;51.532;7.684;2023-03-24T18:00:17;2.00;;;0.82;;
70467;SDS011;57934;51.532;7.684;2023-03-24T18:02:44;1.75;;;1.08;;
70467;SDS011;57934;51.532;7.684;2023-03-24T18:05:12;2.88;;;1.10;;
70467;SDS011;57934;51.532;7.684;2023-03-24T18:07:38;2.92;;;0.93;;
70467;SDS011;57934;51.532;7.684;2023-03-24T18:10:05;4.53;;;1.02;;
70467;SDS011;57934;51.532;7.684;2023-03-24T18:12:32;3.20;;;1.95;;
70467;SDS011;57934;51.532;7.684;2023-03-24T18:14:59;1.88;;;0.90;;
70467;SDS011;57934;51.532;7.684;2023-03-24T18:17:25;2.40;;;1.00;;
70467;SDS011;57934;51.532;7.684;2023-03-24T18:19:51;3.08;;;1.00;;
70467;SDS011;57934;51.532;7.684;2023-03-24T18:22:17;4.70;;;0.82;;
70467;SDS011;57934;51.532;7.684;2023-03-24T18:24:43;1.50;;;0.80;;
70467;SDS011;57934;51.532;7.684;2023-03-24T18:27:10;4.20;;;1.27;;
70467;SDS011;57934;51.532;7.684;2023-03-24T18:29:36;1.35;;;0.80;;
70467;SDS011;57934;51.532;7.684;2023-03-24T18:32:03;2.08;;;0.60;;
70467;SDS011;57934;51.532;7.684;2023-03-24T18:34:31;2.85;;;0.98;;
70467;SDS011;57934;51.532;7.684;2023-03-24T18:36:57;3.25;;;1.10;;
70467;SDS011;57934;51.532;7.684;2023-03-24T18:39:24;2.30;;;0.88;;